sensor_id;sensor_type;location;lat;lon;timestamp;P1;durP1;ratioP1;P2;durP2;ratioP2
81619;SDS011;71028;53.410;6.710;2023-12-07T00:02:17;10.57;;;5.60;;
81619;SDS011;71028;53.410;6.710;2023-12-07T00:04:43;10.90;;;5.93;;
81619;SDS011;71028;53.410;6.710;2023-12-07T00:07:09;12.93;;;7.28;;
81619;SDS011;71028;53.410;6.710;2023-12-07T00:09:35;9.57;;;5.22;;
81619;SDS011;71028;53.410;6.710;2023-12-07T00:12:01;8.68;;;5.82;;
81619;SDS011;71028;53.410;6.710;2023-12-07T00:14:27;7.82;;;5.10;;
81619;SDS011;71028;53.410;6.710;2023-12-07T00:16:53;8.73;;;5.07;;
81619;SDS011;71028;53.410;6.710;2023-12-07T00:19:19;8.20;;;5.07;;
81619;SDS011;71028;53.410;6.710;2023-12-07T00:21:45;9.68;;;4.90;;
81619;SDS011;71028;53.410;6.710;2023-12-07T00:24:11;10.15;;;5.68;;
81619;SDS011;71028;53.410;6.710;2023-12-07T00:26:37;9.27;;;5.47;;
81619;SDS011;71028;53.410;6.710;2023-12-07T00:29:03;8.90;;;5.25;;
81619;SDS011;71028;53.410;6.710;2023-12-07T00:31:29;10.13;;;6.13;;
81619;SDS011;71028;53.410;6.710;2023-12-07T00:33:55;11.05;;;5.57;;
81619;SDS011;71028;53.410;6.710;2023-12-07T00:36:21;11.98;;;6.05;;
81619;SDS011;71028;53.410;6.710;2023-12-07T00:38:47;11.20;;;5.70;;
81619;SDS011;71028;53.410;6.710;2023-12-07T00:41:13;8.13;;;5.15;;
81619;SDS011;71028;53.410;6.710;2023-12-07T00:43:39;8.93;;;5.13;;
81619;SDS011;71028;53.410;6.710;2023-12-07T00:46:08;9.15;;;5.13;;
81619;SDS011;71028;53.410;6.710;2023-12-07T00:48:34;12.05;;;5.13;;
81619;SDS011;71028;53.410;6.710;2023-12-07T00:51:00;11.65;;;5.78;;
81619;SDS011;71028;53.410;6.710;2023-12-07T00:53:26;9.52;;;5.53;;
81619;SDS011;71028;53.410;6.710;2023-12-07T00:55:52;10.23;;;5.43;;
81619;SDS011;71028;53.410;6.710;2023-12-07T00:58:18;8.50;;;4.55;;
81619;SDS011;71028;53.410;6.710;2023-12-07T01:00:44;12.18;;;5.28;;
81619;SDS011;71028;53.410;6.710;2023-12-07T01:03:10;7.47;;;4.57;;
81619;SDS011;71028;53.410;6.710;2023-12-07T01:05:36;7.63;;;4.10;;
81619;SDS011;71028;53.410;6.710;2023-12-07T01:08:02;8.15;;;4.90;;
81619;SDS011;71028;53.410;6.710;2023-12-07T01:10:28;11.00;;;5.35;;
81619;SDS011;71028;53.410;6.710;2023-12-07T01:12:54;9.52;;;4.57;;
81619;SDS011;71028;53.410;6.710;2023-12-07T01:15:20;7.85;;;4.20;;
81619;SDS011;71028;53.410;6.710;2023-12-07T01:17:46;8.07;;;4.13;;
81619;SDS011;71028;53.410;6.710;2023-12-07T01:20:12;7.30;;;4.18;;
81619;SDS011;71028;53.410;6.710;2023-12-07T01:22:41;7.78;;;4.38;;
81619;SDS011;71028;53.410;6.710;2023-12-07T01:25:07;6.78;;;4.18;;
81619;SDS011;71028;53.410;6.710;2023-12-07T01:27:34;7.88;;;4.68;;
81619;SDS011;71028;53.410;6.710;2023-12-07T01:30:00;7.65;;;4.90;;
81619;SDS011;71028;53.410;6.710;2023-12-07T01:32:26;9.07;;;4.68;;
81619;SDS011;71028;53.410;6.710;2023-12-07T01:34:52;7.82;;;4.82;;
81619;SDS011;71028;53.410;6.710;2023-12-07T01:37:18;8.18;;;5.13;;
81619;SDS011;71028;53.410;6.710;2023-12-07T01:39:44;7.70;;;4.03;;
81619;SDS011;71028;53.410;6.710;2023-12-07T01:42:10;6.85;;;3.97;;
81619;SDS011;71028;53.410;6.710;2023-12-07T01:44:37;7.80;;;5.22;;
81619;SDS011;71028;53.410;6.710;2023-12-07T01:47:04;7.57;;;4.57;;
81619;SDS011;71028;53.410;6.710;2023-12-07T01:49:30;8.40;;;5.03;;
81619;SDS011;71028;53.410;6.710;2023-12-07T01:51:56;7.57;;;4.50;;
81619;SDS011;71028;53.410;6.710;2023-12-07T01:54:23;8.68;;;4.57;;
81619;SDS011;71028;53.410;6.710;2023-12-07T01:56:50;8.85;;;4.50;;
81619;SDS011;71028;53.410;6.710;2023-12-07T01:59:17;9.00;;;4.60;;
81619;SDS011;71028;53.410;6.710;2023-12-07T02:01:43;10.02;;;4.93;;
81619;SDS011;71028;53.410;6.710;2023-12-07T02:04:09;7.07;;;4.70;;
81619;SDS011;71028;53.410;6.710;2023-12-07T02:06:36;9.35;;;4.45;;
81619;SDS011;71028;53.410;6.710;2023-12-07T02:09:02;9.68;;;4.93;;
81619;SDS011;71028;53.410;6.710;2023-12-07T02:11:28;8.50;;;4.80;;
81619;SDS011;71028;53.410;6.710;2023-12-07T02:13:54;7.68;;;4.65;;
81619;SDS011;71028;53.410;6.710;2023-12-07T02:16:29;8.63;;;4.50;;
81619;SDS011;71028;53.410;6.710;2023-12-07T02:18:59;8.20;;;4.72;;
81619;SDS011;71028;53.410;6.710;2023-12-07T02:23:53;11.00;;;5.82;;
81619;SDS011;71028;53.410;6.710;2023-12-07T02:26:20;8.07;;;5.25;;
81619;SDS011;71028;53.410;6.710;2023-12-07T02:28:47;9.32;;;5.72;;
81619;SDS011;71028;53.410;6.710;2023-12-07T02:31:13;9.80;;;5.25;;
81619;SDS011;71028;53.410;6.710;2023-12-07T02:33:39;9.88;;;4.72;;
81619;SDS011;71028;53.410;6.710;2023-12-07T02:36:05;8.60;;;5.53;;
81619;SDS011;71028;53.410;6.710;2023-12-07T02:38:32;8.48;;;4.68;;
81619;SDS011;71028;53.410;6.710;2023-12-07T02:40:58;8.30;;;4.78;;
81619;SDS011;71028;53.410;6.710;2023-12-07T02:43:25;8.68;;;4.72;;
81619;SDS011;71028;53.410;6.710;2023-12-07T02:45:51;7.55;;;4.90;;
81619;SDS011;71028;53.410;6.710;2023-12-07T02:48:17;10.07;;;5.28;;
81619;SDS011;71028;53.410;6.710;2023-12-07T02:50:43;9.32;;;4.93;;
81619;SDS011;71028;53.410;6.710;2023-12-07T02:53:09;7.78;;;4.63;;
81619;SDS011;71028;53.410;6.710;2023-12-07T02:55:35;9.35;;;4.85;;
81619;SDS011;71028;53.410;6.710;2023-12-07T02:58:01;7.55;;;4.43;;
81619;SDS011;71028;53.410;6.710;2023-12-07T03:00:27;10.40;;;4.80;;
81619;SDS011;71028;53.410;6.710;2023-12-07T03:02:53;9.93;;;4.85;;
81619;SDS011;71028;53.410;6.710;2023-12-07T03:05:19;9.43;;;5.18;;
81619;SDS011;71028;53.410;6.710;2023-12-07T03:07:45;9.45;;;5.20;;
81619;SDS011;71028;53.410;6.710;2023-12-07T03:10:11;12.65;;;4.93;;
81619;SDS011;71028;53.410;6.710;2023-12-07T03:12:37;10.25;;;4.53;;
81619;SDS011;71028;53.410;6.710;2023-12-07T03:15:03;9.23;;;4.93;;
81619;SDS011;71028;53.410;6.710;2023-12-07T03:17:29;10.15;;;5.43;;
81619;SDS011;71028;53.410;6.710;2023-12-07T03:19:55;10.63;;;5.60;;
81619;SDS011;71028;53.410;6.710;2023-12-07T03:22:21;9.43;;;6.00;;
81619;SDS011;71028;53.410;6.710;2023-12-07T03:24:49;7.05;;;4.22;;
81619;SDS011;71028;53.410;6.710;2023-12-07T03:27:16;8.07;;;4.57;;
81619;SDS011;71028;53.410;6.710;2023-12-07T03:29:42;12.48;;;5.70;;
81619;SDS011;71028;53.410;6.710;2023-12-07T03:32:08;8.82;;;5.20;;
81619;SDS011;71028;53.410;6.710;2023-12-07T03:34:34;9.30;;;4.55;;
81619;SDS011;71028;53.410;6.710;2023-12-07T03:37:00;8.60;;;4.78;;
81619;SDS011;71028;53.410;6.710;2023-12-07T03:39:26;9.43;;;4.88;;
81619;SDS011;71028;53.410;6.710;2023-12-07T03:41:54;7.25;;;4.05;;
81619;SDS011;71028;53.410;6.710;2023-12-07T03:44:20;9.60;;;4.93;;
81619;SDS011;71028;53.410;6.710;2023-12-07T03:46:46;9.57;;;4.53;;
81619;SDS011;71028;53.410;6.710;2023-12-07T03:49:12;8.05;;;4.47;;
81619;SDS011;71028;53.410;6.710;2023-12-07T03:51:38;9.27;;;4.63;;
81619;SDS011;71028;53.410;6.710;2023-12-07T03:54:04;9.25;;;5.07;;
81619;SDS011;71028;53.410;6.710;2023-12-07T03:56:32;9.07;;;4.35;;
81619;SDS011;71028;53.410;6.710;2023-12-07T03:58:58;8.38;;;4.78;;
81619;SDS011;71028;53.410;6.710;2023-12-07T04:01:24;8.90;;;4.20;;
81619;SDS011;71028;53.410;6.710;2023-12-07T04:03:54;9.95;;;5.07;;
81619;SDS011;71028;53.410;6.710;2023-12-07T04:06:21;9.77;;;5.00;;
81619;SDS011;71028;53.410;6.710;2023-12-07T04:08:47;8.93;;;4.47;;
81619;SDS011;71028;53.410;6.710;2023-12-07T04:11:13;9.43;;;4.68;;
81619;SDS011;71028;53.410;6.710;2023-12-07T04:13:40;8.07;;;4.63;;
81619;SDS011;71028;53.410;6.710;2023-12-07T04:16:07;10.05;;;4.78;;
81619;SDS011;71028;53.410;6.710;2023-12-07T04:18:33;9.70;;;4.75;;
81619;SDS011;71028;53.410;6.710;2023-12-07T04:20:59;8.13;;;4.80;;
81619;SDS011;71028;53.410;6.710;2023-12-07T04:23:25;7.85;;;4.78;;
81619;SDS011;71028;53.410;6.710;2023-12-07T04:25:51;11.20;;;5.10;;
81619;SDS011;71028;53.410;6.710;2023-12-07T04:28:17;10.05;;;4.68;;
81619;SDS011;71028;53.410;6.710;2023-12-07T04:30:43;8.95;;;4.70;;
81619;SDS011;71028;53.410;6.710;2023-12-07T04:33:09;8.85;;;5.05;;
81619;SDS011;71028;53.410;6.710;2023-12-07T04:35:35;11.57;;;5.03;;
81619;SDS011;71028;53.410;6.710;2023-12-07T04:38:01;9.40;;;5.00;;
81619;SDS011;71028;53.410;6.710;2023-12-07T04:40:27;9.70;;;5.00;;
81619;SDS011;71028;53.410;6.710;2023-12-07T04:42:53;10.27;;;5.80;;
81619;SDS011;71028;53.410;6.710;2023-12-07T04:45:19;7.15;;;4.60;;
81619;SDS011;71028;53.410;6.710;2023-12-07T04:47:45;10.02;;;4.60;;
81619;SDS011;71028;53.410;6.710;2023-12-07T04:50:12;8.20;;;5.05;;
81619;SDS011;71028;53.410;6.710;2023-12-07T04:52:38;10.88;;;5.20;;
81619;SDS011;71028;53.410;6.710;2023-12-07T04:55:05;9.25;;;4.75;;
81619;SDS011;71028;53.410;6.710;2023-12-07T04:57:31;11.98;;;5.63;;
81619;SDS011;71028;53.410;6.710;2023-12-07T04:59:57;9.88;;;5.10;;
81619;SDS011;71028;53.410;6.710;2023-12-07T05:02:23;9.48;;;5.22;;
81619;SDS011;71028;53.410;6.710;2023-12-07T05:04:49;9.25;;;5.50;;
81619;SDS011;71028;53.410;6.710;2023-12-07T05:07:15;8.73;;;5.03;;
81619;SDS011;71028;53.410;6.710;2023-12-07T05:09:42;10.05;;;4.88;;
81619;SDS011;71028;53.410;6.710;2023-12-07T05:12:08;8.48;;;4.75;;
81619;SDS011;71028;53.410;6.710;2023-12-07T05:14:34;9.90;;;5.30;;
81619;SDS011;71028;53.410;6.710;2023-12-07T05:17:01;14.60;;;5.22;;
81619;SDS011;71028;53.410;6.710;2023-12-07T05:19:27;10.15;;;4.90;;
81619;SDS011;71028;53.410;6.710;2023-12-07T05:21:53;9.55;;;5.47;;
81619;SDS011;71028;53.410;6.710;2023-12-07T05:24:19;9.65;;;4.97;;
81619;SDS011;71028;53.410;6.710;2023-12-07T05:26:46;11.30;;;5.45;;
81619;SDS011;71028;53.410;6.710;2023-12-07T05:29:12;8.32;;;5.10;;
81619;SDS011;71028;53.410;6.710;2023-12-07T05:31:38;9.82;;;4.85;;
81619;SDS011;71028;53.410;6.710;2023-12-07T05:34:05;9.00;;;4.60;;
81619;SDS011;71028;53.410;6.710;2023-12-07T05:36:31;9.57;;;4.97;;
81619;SDS011;71028;53.410;6.710;2023-12-07T05:38:57;11.75;;;5.35;;
81619;SDS011;71028;53.410;6.710;2023-12-07T05:41:23;11.68;;;4.95;;
81619;SDS011;71028;53.410;6.710;2023-12-07T05:43:50;10.10;;;5.50;;
81619;SDS011;71028;53.410;6.710;2023-12-07T05:46:16;9.57;;;4.72;;
81619;SDS011;71028;53.410;6.710;2023-12-07T05:48:42;9.77;;;5.50;;
81619;SDS011;71028;53.410;6.710;2023-12-07T05:51:12;10.88;;;5.28;;
81619;SDS011;71028;53.410;6.710;2023-12-07T05:53:39;10.20;;;4.82;;
81619;SDS011;71028;53.410;6.710;2023-12-07T05:56:05;10.30;;;5.00;;
81619;SDS011;71028;53.410;6.710;2023-12-07T05:58:31;8.70;;;5.03;;
81619;SDS011;71028;53.410;6.710;2023-12-07T06:00:57;7.90;;;4.57;;
81619;SDS011;71028;53.410;6.710;2023-12-07T06:03:24;6.90;;;4.72;;
81619;SDS011;71028;53.410;6.710;2023-12-07T06:05:51;9.10;;;4.28;;
81619;SDS011;71028;53.410;6.710;2023-12-07T06:08:17;8.48;;;5.05;;
81619;SDS011;71028;53.410;6.710;2023-12-07T06:10:43;9.73;;;5.13;;
81619;SDS011;71028;53.410;6.710;2023-12-07T06:13:09;8.93;;;4.97;;
81619;SDS011;71028;53.410;6.710;2023-12-07T06:15:35;9.10;;;4.50;;
81619;SDS011;71028;53.410;6.710;2023-12-07T06:18:01;8.63;;;4.75;;
81619;SDS011;71028;53.410;6.710;2023-12-07T06:20:30;9.48;;;4.28;;
81619;SDS011;71028;53.410;6.710;2023-12-07T06:22:56;9.10;;;4.88;;
81619;SDS011;71028;53.410;6.710;2023-12-07T06:25:23;9.82;;;5.30;;
81619;SDS011;71028;53.410;6.710;2023-12-07T06:27:49;9.32;;;4.18;;
81619;SDS011;71028;53.410;6.710;2023-12-07T06:30:15;9.25;;;4.75;;
81619;SDS011;71028;53.410;6.710;2023-12-07T06:32:41;8.07;;;4.65;;
81619;SDS011;71028;53.410;6.710;2023-12-07T06:35:07;10.05;;;5.07;;
81619;SDS011;71028;53.410;6.710;2023-12-07T06:37:33;7.65;;;4.32;;
81619;SDS011;71028;53.410;6.710;2023-12-07T06:39:59;10.15;;;4.82;;
81619;SDS011;71028;53.410;6.710;2023-12-07T06:42:26;7.90;;;4.47;;
81619;SDS011;71028;53.410;6.710;2023-12-07T06:44:52;11.73;;;5.07;;
81619;SDS011;71028;53.410;6.710;2023-12-07T06:47:18;8.73;;;4.82;;
81619;SDS011;71028;53.410;6.710;2023-12-07T06:49:44;8.95;;;4.68;;
81619;SDS011;71028;53.410;6.710;2023-12-07T06:52:11;7.90;;;4.72;;
81619;SDS011;71028;53.410;6.710;2023-12-07T06:54:37;8.95;;;4.38;;
81619;SDS011;71028;53.410;6.710;2023-12-07T06:57:06;10.55;;;5.07;;
81619;SDS011;71028;53.410;6.710;2023-12-07T06:59:35;8.05;;;4.28;;
81619;SDS011;71028;53.410;6.710;2023-12-07T07:02:01;6.88;;;3.90;;
81619;SDS011;71028;53.410;6.710;2023-12-07T07:04:27;9.13;;;4.63;;
81619;SDS011;71028;53.410;6.710;2023-12-07T07:06:54;9.30;;;4.95;;
81619;SDS011;71028;53.410;6.710;2023-12-07T07:09:20;7.95;;;4.78;;
81619;SDS011;71028;53.410;6.710;2023-12-07T07:11:49;7.05;;;4.05;;
81619;SDS011;71028;53.410;6.710;2023-12-07T07:14:16;9.38;;;4.40;;
81619;SDS011;71028;53.410;6.710;2023-12-07T07:16:42;8.43;;;4.80;;
81619;SDS011;71028;53.410;6.710;2023-12-07T07:19:09;6.97;;;4.57;;
81619;SDS011;71028;53.410;6.710;2023-12-07T07:21:36;9.98;;;4.85;;
81619;SDS011;71028;53.410;6.710;2023-12-07T07:24:02;6.57;;;3.58;;
81619;SDS011;71028;53.410;6.710;2023-12-07T07:26:28;9.00;;;4.88;;
81619;SDS011;71028;53.410;6.710;2023-12-07T07:28:54;8.43;;;4.78;;
81619;SDS011;71028;53.410;6.710;2023-12-07T07:31:20;7.60;;;4.93;;
81619;SDS011;71028;53.410;6.710;2023-12-07T07:33:46;10.15;;;5.35;;
81619;SDS011;71028;53.410;6.710;2023-12-07T07:36:12;7.57;;;4.32;;
81619;SDS011;71028;53.410;6.710;2023-12-07T07:38:40;9.85;;;4.88;;
81619;SDS011;71028;53.410;6.710;2023-12-07T07:41:06;11.80;;;5.25;;
81619;SDS011;71028;53.410;6.710;2023-12-07T07:43:32;10.20;;;5.40;;
81619;SDS011;71028;53.410;6.710;2023-12-07T07:45:59;10.07;;;6.13;;
81619;SDS011;71028;53.410;6.710;2023-12-07T07:48:25;9.18;;;5.97;;
81619;SDS011;71028;53.410;6.710;2023-12-07T07:50:51;9.23;;;5.10;;
81619;SDS011;71028;53.410;6.710;2023-12-07T07:53:17;10.40;;;5.35;;
81619;SDS011;71028;53.410;6.710;2023-12-07T07:55:43;8.52;;;5.15;;
81619;SDS011;71028;53.410;6.710;2023-12-07T07:58:09;7.45;;;4.80;;
81619;SDS011;71028;53.410;6.710;2023-12-07T08:00:35;8.40;;;4.22;;
81619;SDS011;71028;53.410;6.710;2023-12-07T08:03:01;10.40;;;4.53;;
81619;SDS011;71028;53.410;6.710;2023-12-07T08:05:27;11.35;;;5.43;;
81619;SDS011;71028;53.410;6.710;2023-12-07T08:07:53;8.57;;;4.57;;
81619;SDS011;71028;53.410;6.710;2023-12-07T08:10:20;9.75;;;4.72;;
81619;SDS011;71028;53.410;6.710;2023-12-07T08:12:46;9.90;;;4.60;;
81619;SDS011;71028;53.410;6.710;2023-12-07T08:15:12;10.63;;;5.22;;
81619;SDS011;71028;53.410;6.710;2023-12-07T08:17:39;10.73;;;4.75;;
81619;SDS011;71028;53.410;6.710;2023-12-07T08:20:06;7.90;;;5.20;;
81619;SDS011;71028;53.410;6.710;2023-12-07T08:22:32;9.90;;;5.15;;
81619;SDS011;71028;53.410;6.710;2023-12-07T08:24:58;10.00;;;4.95;;
81619;SDS011;71028;53.410;6.710;2023-12-07T08:27:25;8.75;;;5.18;;
81619;SDS011;71028;53.410;6.710;2023-12-07T08:29:51;10.05;;;5.55;;
81619;SDS011;71028;53.410;6.710;2023-12-07T08:32:17;9.48;;;4.95;;
81619;SDS011;71028;53.410;6.710;2023-12-07T08:34:44;8.68;;;4.55;;
81619;SDS011;71028;53.410;6.710;2023-12-07T08:37:10;10.98;;;5.47;;
81619;SDS011;71028;53.410;6.710;2023-12-07T08:39:36;8.85;;;5.78;;
81619;SDS011;71028;53.410;6.710;2023-12-07T08:42:03;10.23;;;5.43;;
81619;SDS011;71028;53.410;6.710;2023-12-07T08:44:29;9.65;;;5.07;;
81619;SDS011;71028;53.410;6.710;2023-12-07T08:46:55;9.90;;;4.97;;
81619;SDS011;71028;53.410;6.710;2023-12-07T08:49:21;13.18;;;5.32;;
81619;SDS011;71028;53.410;6.710;2023-12-07T08:51:47;9.27;;;5.15;;
81619;SDS011;71028;53.410;6.710;2023-12-07T08:54:13;12.73;;;6.25;;
81619;SDS011;71028;53.410;6.710;2023-12-07T08:56:39;10.13;;;5.20;;
81619;SDS011;71028;53.410;6.710;2023-12-07T08:59:05;8.57;;;5.32;;
81619;SDS011;71028;53.410;6.710;2023-12-07T09:01:31;10.45;;;6.00;;
81619;SDS011;71028;53.410;6.710;2023-12-07T09:03:58;11.02;;;4.90;;
81619;SDS011;71028;53.410;6.710;2023-12-07T09:06:24;10.60;;;5.55;;
81619;SDS011;71028;53.410;6.710;2023-12-07T09:08:50;9.88;;;5.45;;
81619;SDS011;71028;53.410;6.710;2023-12-07T09:11:17;9.07;;;5.13;;
81619;SDS011;71028;53.410;6.710;2023-12-07T09:13:43;9.05;;;4.82;;
81619;SDS011;71028;53.410;6.710;2023-12-07T09:16:09;10.13;;;5.03;;
81619;SDS011;71028;53.410;6.710;2023-12-07T09:18:35;12.50;;;5.82;;
81619;SDS011;71028;53.410;6.710;2023-12-07T09:21:01;10.98;;;6.13;;
81619;SDS011;71028;53.410;6.710;2023-12-07T09:23:28;8.98;;;4.80;;
81619;SDS011;71028;53.410;6.710;2023-12-07T09:25:54;9.75;;;5.43;;
81619;SDS011;71028;53.410;6.710;2023-12-07T09:28:20;11.88;;;6.10;;
81619;SDS011;71028;53.410;6.710;2023-12-07T09:30:46;9.02;;;5.40;;
81619;SDS011;71028;53.410;6.710;2023-12-07T09:33:12;9.25;;;5.18;;
81619;SDS011;71028;53.410;6.710;2023-12-07T09:35:38;9.02;;;5.30;;
81619;SDS011;71028;53.410;6.710;2023-12-07T09:38:04;9.57;;;5.88;;
81619;SDS011;71028;53.410;6.710;2023-12-07T09:40:32;9.27;;;5.13;;
81619;SDS011;71028;53.410;6.710;2023-12-07T09:42:58;10.88;;;5.28;;
81619;SDS011;71028;53.410;6.710;2023-12-07T09:45:24;10.38;;;5.07;;
81619;SDS011;71028;53.410;6.710;2023-12-07T09:47:53;9.15;;;5.78;;
81619;SDS011;71028;53.410;6.710;2023-12-07T09:50:20;12.82;;;6.40;;
81619;SDS011;71028;53.410;6.710;2023-12-07T09:52:47;9.20;;;5.50;;
81619;SDS011;71028;53.410;6.710;2023-12-07T09:55:14;9.60;;;5.32;;
81619;SDS011;71028;53.410;6.710;2023-12-07T09:57:41;10.20;;;5.57;;
81619;SDS011;71028;53.410;6.710;2023-12-07T10:00:08;14.32;;;5.80;;
81619;SDS011;71028;53.410;6.710;2023-12-07T10:05:06;10.30;;;5.93;;
81619;SDS011;71028;53.410;6.710;2023-12-07T10:07:36;10.98;;;5.70;;
81619;SDS011;71028;53.410;6.710;2023-12-07T10:10:03;11.60;;;6.10;;
81619;SDS011;71028;53.410;6.710;2023-12-07T10:12:33;12.68;;;6.10;;
81619;SDS011;71028;53.410;6.710;2023-12-07T10:15:00;11.50;;;5.70;;
81619;SDS011;71028;53.410;6.710;2023-12-07T10:17:47;11.15;;;5.95;;
81619;SDS011;71028;53.410;6.710;2023-12-07T10:20:14;10.77;;;5.47;;
81619;SDS011;71028;53.410;6.710;2023-12-07T10:22:41;12.40;;;6.35;;
81619;SDS011;71028;53.410;6.710;2023-12-07T10:25:07;9.55;;;5.75;;
81619;SDS011;71028;53.410;6.710;2023-12-07T10:27:33;10.43;;;6.22;;
81619;SDS011;71028;53.410;6.710;2023-12-07T10:30:00;13.10;;;6.15;;
81619;SDS011;71028;53.410;6.710;2023-12-07T10:32:26;12.35;;;6.10;;
81619;SDS011;71028;53.410;6.710;2023-12-07T10:34:53;10.93;;;5.45;;
81619;SDS011;71028;53.410;6.710;2023-12-07T10:37:21;12.00;;;6.15;;
81619;SDS011;71028;53.410;6.710;2023-12-07T10:39:47;11.43;;;5.68;;
81619;SDS011;71028;53.410;6.710;2023-12-07T10:42:13;11.48;;;5.57;;
81619;SDS011;71028;53.410;6.710;2023-12-07T10:44:42;11.13;;;5.40;;
81619;SDS011;71028;53.410;6.710;2023-12-07T10:47:11;12.05;;;6.03;;
81619;SDS011;71028;53.410;6.710;2023-12-07T10:49:38;12.35;;;6.22;;
81619;SDS011;71028;53.410;6.710;2023-12-07T10:52:09;10.65;;;6.13;;
81619;SDS011;71028;53.410;6.710;2023-12-07T10:55:28;13.00;;;7.03;;
81619;SDS011;71028;53.410;6.710;2023-12-07T10:57:24;11.25;;;6.13;;
81619;SDS011;71028;53.410;6.710;2023-12-07T10:59:50;13.35;;;6.82;;
81619;SDS011;71028;53.410;6.710;2023-12-07T11:02:17;12.05;;;6.93;;
81619;SDS011;71028;53.410;6.710;2023-12-07T11:04:45;14.45;;;7.22;;
81619;SDS011;71028;53.410;6.710;2023-12-07T11:07:12;12.40;;;6.40;;
81619;SDS011;71028;53.410;6.710;2023-12-07T11:09:42;14.30;;;7.05;;
81619;SDS011;71028;53.410;6.710;2023-12-07T11:12:12;13.23;;;6.88;;
81619;SDS011;71028;53.410;6.710;2023-12-07T11:14:42;18.98;;;7.38;;
81619;SDS011;71028;53.410;6.710;2023-12-07T11:17:08;17.38;;;8.00;;
81619;SDS011;71028;53.410;6.710;2023-12-07T11:22:10;16.70;;;8.13;;
81619;SDS011;71028;53.410;6.710;2023-12-07T11:24:36;15.95;;;7.95;;
81619;SDS011;71028;53.410;6.710;2023-12-07T11:27:03;14.63;;;7.65;;
81619;SDS011;71028;53.410;6.710;2023-12-07T11:29:29;15.98;;;8.85;;
81619;SDS011;71028;53.410;6.710;2023-12-07T11:31:56;18.13;;;7.90;;
81619;SDS011;71028;53.410;6.710;2023-12-07T11:34:38;19.52;;;9.13;;
81619;SDS011;71028;53.410;6.710;2023-12-07T11:37:04;15.98;;;8.75;;
81619;SDS011;71028;53.410;6.710;2023-12-07T11:39:35;17.80;;;9.13;;
81619;SDS011;71028;53.410;6.710;2023-12-07T11:42:06;16.17;;;9.45;;
81619;SDS011;71028;53.410;6.710;2023-12-07T11:44:33;18.23;;;9.45;;
81619;SDS011;71028;53.410;6.710;2023-12-07T11:47:02;17.45;;;8.55;;
81619;SDS011;71028;53.410;6.710;2023-12-07T11:49:28;16.20;;;8.88;;
81619;SDS011;71028;53.410;6.710;2023-12-07T11:51:55;18.83;;;8.75;;
81619;SDS011;71028;53.410;6.710;2023-12-07T11:54:25;16.95;;;9.63;;
81619;SDS011;71028;53.410;6.710;2023-12-07T11:56:52;14.38;;;8.23;;
81619;SDS011;71028;53.410;6.710;2023-12-07T11:59:18;16.67;;;9.02;;
81619;SDS011;71028;53.410;6.710;2023-12-07T12:01:47;16.50;;;8.70;;
81619;SDS011;71028;53.410;6.710;2023-12-07T12:04:17;18.00;;;8.95;;
81619;SDS011;71028;53.410;6.710;2023-12-07T12:06:43;16.27;;;8.65;;
81619;SDS011;71028;53.410;6.710;2023-12-07T12:09:12;16.70;;;9.18;;
81619;SDS011;71028;53.410;6.710;2023-12-07T12:11:38;16.20;;;8.50;;
81619;SDS011;71028;53.410;6.710;2023-12-07T12:14:09;17.35;;;8.57;;
81619;SDS011;71028;53.410;6.710;2023-12-07T12:16:35;17.38;;;8.93;;
81619;SDS011;71028;53.410;6.710;2023-12-07T12:19:01;14.48;;;8.25;;
81619;SDS011;71028;53.410;6.710;2023-12-07T12:21:27;18.02;;;8.45;;
81619;SDS011;71028;53.410;6.710;2023-12-07T12:23:53;16.88;;;8.32;;
81619;SDS011;71028;53.410;6.710;2023-12-07T12:26:19;17.42;;;7.80;;
81619;SDS011;71028;53.410;6.710;2023-12-07T12:28:46;17.48;;;8.38;;
81619;SDS011;71028;53.410;6.710;2023-12-07T12:31:12;15.50;;;7.97;;
81619;SDS011;71028;53.410;6.710;2023-12-07T12:33:38;15.82;;;8.63;;
81619;SDS011;71028;53.410;6.710;2023-12-07T12:36:04;16.95;;;7.88;;
81619;SDS011;71028;53.410;6.710;2023-12-07T12:38:32;16.02;;;8.63;;
81619;SDS011;71028;53.410;6.710;2023-12-07T12:40:58;15.05;;;8.60;;
81619;SDS011;71028;53.410;6.710;2023-12-07T12:43:24;12.35;;;6.80;;
81619;SDS011;71028;53.410;6.710;2023-12-07T12:45:50;14.77;;;7.32;;
81619;SDS011;71028;53.410;6.710;2023-12-07T12:48:16;14.73;;;7.22;;
81619;SDS011;71028;53.410;6.710;2023-12-07T12:50:43;13.88;;;7.88;;
81619;SDS011;71028;53.410;6.710;2023-12-07T12:53:10;15.55;;;7.95;;
81619;SDS011;71028;53.410;6.710;2023-12-07T12:55:40;15.65;;;7.90;;
81619;SDS011;71028;53.410;6.710;2023-12-07T12:58:06;13.40;;;7.60;;
81619;SDS011;71028;53.410;6.710;2023-12-07T13:00:33;16.92;;;8.02;;
81619;SDS011;71028;53.410;6.710;2023-12-07T13:03:03;26.20;;;7.78;;
81619;SDS011;71028;53.410;6.710;2023-12-07T13:05:29;16.45;;;7.38;;
81619;SDS011;71028;53.410;6.710;2023-12-07T13:07:55;13.60;;;7.22;;
81619;SDS011;71028;53.410;6.710;2023-12-07T13:10:22;13.23;;;7.75;;
81619;SDS011;71028;53.410;6.710;2023-12-07T13:12:48;15.05;;;7.15;;
81619;SDS011;71028;53.410;6.710;2023-12-07T13:15:14;15.40;;;7.55;;
81619;SDS011;71028;53.410;6.710;2023-12-07T13:17:40;12.30;;;6.90;;
81619;SDS011;71028;53.410;6.710;2023-12-07T13:20:07;15.35;;;8.60;;
81619;SDS011;71028;53.410;6.710;2023-12-07T13:22:42;12.82;;;7.40;;
81619;SDS011;71028;53.410;6.710;2023-12-07T13:25:09;15.75;;;8.75;;
81619;SDS011;71028;53.410;6.710;2023-12-07T13:27:35;17.45;;;9.05;;
81619;SDS011;71028;53.410;6.710;2023-12-07T13:30:04;15.10;;;7.85;;
81619;SDS011;71028;53.410;6.710;2023-12-07T13:32:32;15.73;;;8.77;;
81619;SDS011;71028;53.410;6.710;2023-12-07T13:34:58;16.27;;;8.02;;
81619;SDS011;71028;53.410;6.710;2023-12-07T13:37:24;13.73;;;7.97;;
81619;SDS011;71028;53.410;6.710;2023-12-07T13:39:50;18.80;;;8.35;;
81619;SDS011;71028;53.410;6.710;2023-12-07T13:42:23;17.02;;;8.20;;
81619;SDS011;71028;53.410;6.710;2023-12-07T13:44:51;23.73;;;10.50;;
81619;SDS011;71028;53.410;6.710;2023-12-07T13:47:17;18.17;;;9.50;;
81619;SDS011;71028;53.410;6.710;2023-12-07T13:49:45;26.10;;;9.13;;
81619;SDS011;71028;53.410;6.710;2023-12-07T13:52:11;27.55;;;8.90;;
81619;SDS011;71028;53.410;6.710;2023-12-07T13:54:38;24.15;;;9.32;;
81619;SDS011;71028;53.410;6.710;2023-12-07T13:57:04;24.63;;;9.93;;
81619;SDS011;71028;53.410;6.710;2023-12-07T13:59:30;22.00;;;9.85;;
81619;SDS011;71028;53.410;6.710;2023-12-07T14:01:57;22.65;;;10.38;;
81619;SDS011;71028;53.410;6.710;2023-12-07T14:04:24;25.38;;;9.40;;
81619;SDS011;71028;53.410;6.710;2023-12-07T14:06:50;22.75;;;8.60;;
81619;SDS011;71028;53.410;6.710;2023-12-07T14:09:16;19.00;;;9.15;;
81619;SDS011;71028;53.410;6.710;2023-12-07T14:11:43;21.58;;;9.82;;
81619;SDS011;71028;53.410;6.710;2023-12-07T14:14:09;24.52;;;10.35;;
81619;SDS011;71028;53.410;6.710;2023-12-07T14:16:38;21.65;;;9.20;;
81619;SDS011;71028;53.410;6.710;2023-12-07T14:19:05;23.33;;;9.18;;
81619;SDS011;71028;53.410;6.710;2023-12-07T14:21:31;22.58;;;9.63;;
81619;SDS011;71028;53.410;6.710;2023-12-07T14:23:57;25.48;;;9.30;;
81619;SDS011;71028;53.410;6.710;2023-12-07T14:26:23;19.70;;;9.00;;
81619;SDS011;71028;53.410;6.710;2023-12-07T14:28:49;25.83;;;7.93;;
81619;SDS011;71028;53.410;6.710;2023-12-07T14:31:15;24.42;;;9.00;;
81619;SDS011;71028;53.410;6.710;2023-12-07T14:33:42;40.80;;;9.88;;
81619;SDS011;71028;53.410;6.710;2023-12-07T14:36:09;22.88;;;10.27;;
81619;SDS011;71028;53.410;6.710;2023-12-07T14:38:36;30.15;;;10.05;;
81619;SDS011;71028;53.410;6.710;2023-12-07T14:41:02;35.60;;;10.43;;
81619;SDS011;71028;53.410;6.710;2023-12-07T14:43:29;29.77;;;10.20;;
81619;SDS011;71028;53.410;6.710;2023-12-07T14:45:55;27.38;;;10.50;;